PHK weather

Palm Beach County Glades Airport
Pahokee, Florida, United States

Public forecast

Using degrees Fahrenheit for public forecast. Weather courtesy of forecast.io.

METAR (pilot weather report)

Closest report is Okeechobee County Airport, 29.9 nm (55.3 km) NNW. Retrieved 2019/09/19 03:35 UTC (16 minutes ago):

KOBE 190335Z AUTO 05004KT 23/21 A3000 RMK AO2 PWINO

TAF (pilot weather forecast)

Forecast is more than 12 hours old.

Closest forecast is Palm Beach International Airport, 32.6 nm (60.4 km) E. Retrieved 2019/09/18 00:27 UTC (1 day ago):

TAF KPBI 182320Z 1900/1924 05012KT P6SM SCT030 SCT050 FM190500 05015KT P6SM VCSH SCT030 SCT050 FM191500 05018G28KT P6SM VCSH SCT030 SCT050